createdAt,value
2022-12-03T00:03:16.387Z,25.38
2022-12-03T00:13:19.114Z,26.05
2022-12-03T00:23:20.951Z,30.00
2022-12-03T00:33:22.874Z,29.10
2022-12-03T00:43:24.803Z,29.13
2022-12-03T00:53:26.569Z,29.00
2022-12-03T01:03:32.760Z,30.55
2022-12-03T01:13:35.424Z,27.67
2022-12-03T01:23:37.098Z,27.83
2022-12-03T01:33:44.508Z,28.02
2022-12-03T01:43:49.754Z,30.00
2022-12-03T01:53:51.668Z,27.92
2022-12-03T02:03:53.437Z,28.17
2022-12-03T02:13:59.519Z,26.85
2022-12-03T02:24:10.094Z,26.92
2022-12-03T02:34:31.835Z,27.15
2022-12-03T02:44:33.516Z,26.88
2022-12-03T02:54:37.343Z,27.23
2022-12-03T03:04:41.256Z,26.38
2022-12-03T03:14:43.256Z,24.65
2022-12-03T03:24:45.118Z,27.65
2022-12-03T03:34:47.010Z,25.77
2022-12-03T03:44:56.899Z,28.17
2022-12-03T03:55:00.790Z,28.40
2022-12-03T04:15:10.527Z,26.92
2022-12-03T04:25:31.078Z,28.27
2022-12-03T04:35:44.026Z,28.83
2022-12-03T04:45:46.854Z,30.80
2022-12-03T04:55:48.540Z,29.63
2022-12-03T05:05:50.129Z,29.48
2022-12-03T05:15:52.015Z,29.98
2022-12-03T05:25:58.772Z,29.85
2022-12-03T05:36:00.474Z,30.20
2022-12-03T05:46:05.269Z,31.17
2022-12-03T05:56:16.796Z,30.40
2022-12-03T06:06:19.318Z,30.02
2022-12-03T06:16:21.089Z,29.88
2022-12-03T06:26:23.223Z,32.25
2022-12-03T06:36:28.004Z,29.73
2022-12-03T06:46:29.745Z,30.48
2022-12-03T06:56:36.770Z,29.85
2022-12-03T07:06:41.175Z,30.92
2022-12-03T07:16:46.199Z,30.90
2022-12-03T07:26:55.000Z,31.42
2022-12-03T07:36:58.099Z,30.23
2022-12-03T07:46:59.950Z,30.87
2022-12-03T07:57:02.165Z,32.25
2022-12-03T08:07:04.133Z,32.70
2022-12-03T08:17:12.385Z,31.17
2022-12-03T08:27:20.419Z,26.88
2022-12-03T08:37:22.244Z,26.45
2022-12-03T08:47:25.877Z,24.25
2022-12-03T08:57:32.457Z,24.30
2022-12-03T09:07:34.247Z,23.50
2022-12-03T09:17:37.551Z,21.95
2022-12-03T09:27:39.224Z,23.23
2022-12-03T09:37:45.923Z,22.27
2022-12-03T09:47:49.652Z,22.13
2022-12-03T10:08:10.893Z,19.98
2022-12-03T10:18:24.688Z,20.37
2022-12-03T10:28:34.745Z,19.27
2022-12-03T10:38:36.393Z,19.08
2022-12-03T10:48:38.209Z,18.92
2022-12-03T10:58:42.063Z,16.07
2022-12-03T11:08:49.189Z,15.68
2022-12-03T11:19:01.261Z,15.05
2022-12-03T11:29:03.563Z,15.63
2022-12-03T11:39:05.237Z,15.17
2022-12-03T11:49:25.291Z,14.45
2022-12-03T11:59:27.787Z,14.48
2022-12-03T12:19:54.536Z,13.90
2022-12-03T12:30:06.728Z,13.80
2022-12-03T12:40:15.631Z,14.48
2022-12-03T12:50:18.806Z,13.02
2022-12-03T13:00:23.456Z,14.98
2022-12-03T13:10:32.890Z,15.07
2022-12-03T13:20:34.646Z,15.45
2022-12-03T13:30:37.311Z,15.25
2022-12-03T13:41:06.336Z,15.70
2022-12-03T13:51:30.397Z,14.93
2022-12-03T14:01:33.105Z,15.57
2022-12-03T14:11:53.460Z,15.27
2022-12-03T14:21:55.335Z,16.27
2022-12-03T14:31:57.829Z,16.55
2022-12-03T14:42:15.278Z,16.58
2022-12-03T14:52:18.940Z,16.13
2022-12-03T15:02:38.489Z,15.85
2022-12-03T15:12:40.294Z,17.60
2022-12-03T15:22:41.861Z,16.42
2022-12-03T15:32:54.869Z,18.42
2022-12-03T15:42:57.100Z,19.08
2022-12-03T15:53:04.840Z,20.23
2022-12-03T16:03:17.212Z,18.85
2022-12-03T16:13:21.714Z,20.23
2022-12-03T16:23:23.538Z,22.23
2022-12-03T16:33:27.975Z,22.83
2022-12-03T16:43:34.225Z,22.23
2022-12-03T16:53:36.252Z,22.38
2022-12-03T17:03:39.140Z,23.85
2022-12-03T17:13:41.081Z,24.52
2022-12-03T17:23:45.152Z,25.55
2022-12-03T17:33:46.857Z,26.45
2022-12-03T17:43:50.851Z,26.52
2022-12-03T18:03:57.888Z,27.75
2022-12-03T18:14:01.841Z,30.60
2022-12-03T18:24:04.200Z,31.80
2022-12-03T18:34:06.238Z,30.05
2022-12-03T18:44:11.513Z,33.55
2022-12-03T18:54:14.612Z,33.72
2022-12-03T19:04:16.322Z,32.53
2022-12-03T19:14:18.471Z,30.67
2022-12-03T19:24:25.156Z,31.15
2022-12-03T19:34:27.658Z,31.38
2022-12-03T19:44:30.966Z,32.40
2022-12-03T19:54:32.664Z,33.43
2022-12-03T20:04:34.367Z,30.23
2022-12-03T20:14:36.385Z,32.28
2022-12-03T20:24:38.483Z,31.60
2022-12-03T20:34:44.800Z,30.90
2022-12-03T20:45:04.297Z,28.58
2022-12-03T20:55:07.843Z,30.38
2022-12-03T21:05:10.944Z,29.33
2022-12-03T21:15:12.851Z,30.73
2022-12-03T21:25:15.884Z,30.00
2022-12-03T21:35:19.066Z,30.87
2022-12-03T21:45:21.094Z,30.03
2022-12-03T21:55:22.976Z,31.83
2022-12-03T22:05:24.718Z,32.15
2022-12-03T22:15:26.438Z,30.20
2022-12-03T22:25:28.406Z,28.10
2022-12-03T22:35:30.322Z,27.95
2022-12-03T22:45:32.185Z,28.67
2022-12-03T22:55:40.764Z,29.70
2022-12-03T23:05:42.503Z,29.77
2022-12-03T23:15:52.491Z,27.33
2022-12-03T23:26:01.279Z,27.58
2022-12-03T23:36:08.324Z,28.10
2022-12-03T23:46:17.186Z,28.42
2022-12-03T23:56:28.495Z,31.00
